createdAt,value
2018-04-29T17:29:40.742Z,98628.80
2018-04-29T17:32:06.461Z,98630.94
2018-04-29T17:34:32.094Z,98622.42
2018-04-29T17:36:58.774Z,98618.84
2018-04-29T17:39:24.339Z,98615.96
2018-04-29T17:41:49.944Z,98620.64
2018-04-29T17:44:16.018Z,98607.91
2018-04-29T17:46:41.501Z,98606.11
2018-04-29T17:49:07.241Z,98605.70
2018-04-29T17:51:32.965Z,98602.41
2018-04-29T17:53:58.664Z,98603.52
2018-04-29T17:56:24.296Z,98596.55
2018-04-29T17:58:50.382Z,98591.44
2018-04-29T18:01:16.391Z,98592.26
2018-04-29T18:03:42.146Z,98585.18
2018-04-29T18:06:07.767Z,98591.59
2018-04-29T18:08:33.335Z,98582.56
2018-04-29T18:10:59.072Z,98575.58
2018-04-29T18:13:24.682Z,98579.80
2018-04-29T18:15:50.243Z,98566.34
2018-04-29T18:18:16.345Z,98570.55
2018-04-29T18:20:42.002Z,98566.55
2018-04-29T18:23:10.482Z,98571.31
2018-04-29T18:25:36.059Z,98574.88
2018-04-29T18:28:02.338Z,98575.03
2018-04-29T18:30:27.934Z,98578.75
2018-04-29T18:32:54.075Z,98579.68
2018-04-29T18:35:19.779Z,98579.22
2018-04-29T18:37:46.212Z,98576.13
2018-04-29T18:40:11.906Z,98586.16
2018-04-29T18:42:37.596Z,98581.53
2018-04-29T18:45:03.991Z,98565.95
2018-04-29T18:47:29.975Z,98563.16
2018-04-29T18:49:55.616Z,98553.76
2018-04-29T18:52:21.544Z,98550.81
2018-04-29T18:54:47.374Z,98540.13
2018-04-29T18:57:12.996Z,98530.53
2018-04-29T18:59:38.711Z,98539.78
2018-04-29T19:02:05.022Z,98545.20
2018-04-29T19:04:30.737Z,98547.16
2018-04-29T19:06:57.035Z,98535.59
2018-04-29T19:09:22.640Z,98536.34
2018-04-29T19:11:48.684Z,98523.36
2018-04-29T19:14:14.363Z,98512.91
2018-04-29T19:16:39.976Z,98514.05
2018-04-29T19:19:05.694Z,98511.56
2018-04-29T19:21:31.326Z,98510.59
2018-04-29T19:23:57.036Z,98504.08
2018-04-29T19:26:22.721Z,98503.16
2018-04-29T19:28:48.460Z,98494.77
2018-04-29T19:31:14.032Z,98489.89
2018-04-29T19:33:39.722Z,98490.23
2018-04-29T19:36:05.408Z,98484.41
2018-04-29T19:38:31.107Z,98478.03
2018-04-29T19:40:57.185Z,98479.28
2018-04-29T19:43:22.754Z,98468.92
2018-04-29T19:45:48.326Z,98470.41
2018-04-29T19:48:14.551Z,98459.64
2018-04-29T19:50:40.130Z,98465.59
2018-04-29T19:53:05.741Z,98459.95
2018-04-29T19:55:31.464Z,98459.64
2018-04-29T19:57:57.180Z,98454.09
2018-04-29T20:00:22.804Z,98449.88
2018-04-29T20:02:48.867Z,98455.52
2018-04-29T20:05:15.416Z,98454.50
2018-04-29T20:07:41.236Z,98452.78
2018-04-29T20:10:06.969Z,98456.98
2018-04-29T20:12:32.561Z,98460.48
2018-04-29T20:14:58.138Z,98462.88
2018-04-29T20:17:23.928Z,98458.94
2018-04-29T20:19:49.573Z,98462.17
2018-04-29T20:22:15.177Z,98458.23
2018-04-29T20:24:40.969Z,98451.86
2018-04-29T20:27:06.704Z,98454.11
2018-04-29T20:29:32.306Z,98465.14
2018-04-29T20:31:58.034Z,98467.58
2018-04-29T20:34:23.583Z,98459.85
2018-04-29T20:36:49.143Z,98468.22
2018-04-29T20:39:14.954Z,98462.48
2018-04-29T20:41:40.587Z,98458.03
2018-04-29T20:44:06.168Z,98449.60
2018-04-29T20:46:31.902Z,98442.09
2018-04-29T20:48:57.527Z,98452.34
2018-04-29T20:51:23.096Z,98450.09
2018-04-29T20:53:48.957Z,98453.84
2018-04-29T20:56:14.770Z,98451.30
2018-04-29T20:58:40.324Z,98456.39
2018-04-29T21:01:06.041Z,98446.16
2018-04-29T21:03:31.660Z,98451.75
2018-04-29T21:05:57.227Z,98443.56
2018-04-29T21:08:22.981Z,98445.13
2018-04-29T21:10:48.809Z,98443.33
2018-04-29T21:13:15.260Z,98439.83
2018-04-29T21:15:40.996Z,98437.73
2018-04-29T21:18:06.573Z,98418.02
2018-04-29T21:20:32.190Z,98428.51
2018-04-29T21:22:58.005Z,98426.19
2018-04-29T21:25:23.725Z,98423.30
2018-04-29T21:27:49.319Z,98433.83
2018-04-29T21:30:15.087Z,98437.23
2018-04-29T21:32:40.812Z,98436.73
2018-04-29T21:35:06.386Z,98436.73
2018-04-29T21:37:32.034Z,98451.53
2018-04-29T21:39:57.802Z,98443.27
2018-04-29T21:42:23.472Z,98437.48
2018-04-29T21:44:49.031Z,98453.32
2018-04-29T21:47:14.804Z,98452.73
2018-04-29T21:49:40.498Z,98462.23
2018-04-29T21:52:06.103Z,98455.16
2018-04-29T21:54:31.962Z,98464.98
2018-04-29T21:56:57.615Z,98468.19
2018-04-29T21:59:23.224Z,98476.00
2018-04-29T22:01:49.056Z,98467.41
2018-04-29T22:04:14.754Z,98551.64
2018-04-29T22:06:40.277Z,98560.24
2018-04-29T22:09:06.051Z,98563.31
2018-04-29T22:11:31.815Z,98582.32
2018-04-29T22:13:57.380Z,98597.95
2018-04-29T22:16:23.109Z,98619.48
2018-04-29T22:18:48.677Z,98616.11
2018-04-29T22:21:14.271Z,98629.30
2018-04-29T22:23:40.071Z,98640.53
2018-04-29T22:26:05.686Z,98652.20
2018-04-29T22:28:31.247Z,98659.65
2018-04-29T22:30:57.073Z,98672.78
2018-04-29T22:33:22.637Z,98694.59
2018-04-29T22:35:48.238Z,98694.71
2018-04-29T22:38:14.009Z,98703.03
2018-04-29T22:40:39.725Z,98747.97
2018-04-29T22:43:05.354Z,98736.39
2018-04-29T22:45:31.115Z,98753.50
2018-04-29T22:47:56.762Z,98765.77
2018-04-29T22:50:22.268Z,98782.90
2018-04-29T22:52:51.495Z,98801.42
2018-04-29T22:55:17.150Z,98782.16
2018-04-29T22:57:42.740Z,98808.96
2018-04-29T23:00:08.847Z,98819.18
2018-04-29T23:02:34.402Z,98827.15
2018-04-29T23:05:00.009Z,98830.27
2018-04-29T23:07:25.761Z,98831.47
2018-04-29T23:09:51.389Z,98850.15
2018-04-29T23:12:17.004Z,98851.39
2018-04-29T23:14:42.784Z,98854.19
2018-04-29T23:17:08.455Z,98854.19
2018-04-29T23:19:34.073Z,98836.27
2018-04-29T23:21:59.831Z,98851.22
2018-04-29T23:24:25.409Z,98853.58
2018-04-29T23:26:51.363Z,98859.95
2018-04-29T23:29:17.081Z,98866.71
2018-04-29T23:31:42.721Z,98859.67
2018-04-29T23:34:08.284Z,98861.08
2018-04-29T23:36:34.367Z,98865.06
2018-04-29T23:38:59.934Z,98852.94
2018-04-29T23:41:25.540Z,98856.84
2018-04-29T23:43:51.355Z,98846.95
2018-04-29T23:46:17.300Z,98860.17
2018-04-29T23:48:42.928Z,98878.94
2018-04-29T23:51:08.651Z,98891.09
2018-04-29T23:53:34.231Z,98892.20
2018-04-29T23:55:59.783Z,98879.28
2018-04-29T23:58:25.483Z,98886.04
